Time;durP1;ratioP1;P1;durP2;ratioP2;P2;SDS_P1;SDS_P2;PMS_P1;PMS_P2;Temp;Humidity;BMP_temperature;BMP_pressure;BME280_temperature;BME280_humidity;BME280_pressure;Samples;Min_cycle;Max_cycle;Signal;HPM_P1;HPM_P2
2022/11/24 00:00:31;;;;;;;13.23;2.97;;;;;;;6.39;67.80;99325.72;10140796;29;20197;-82
2022/11/24 00:05:53;;;;;;;15.63;3.10;;;;;;;6.63;67.40;99334.41;10121620;29;20276;-84
2022/11/24 00:11:18;;;;;;;13.83;2.43;;;;;;;5.84;69.94;99337.59;10125695;29;20523;-81
2022/11/24 00:16:40;;;;;;;10.77;2.57;;;;;;;6.35;67.39;99339.53;10126394;29;20260;-82
2022/11/24 00:22:02;;;;;;;13.30;3.40;;;;;;;6.47;67.23;99338.91;10132367;29;20558;-81
2022/11/24 00:27:24;;;;;;;13.20;3.03;;;;;;;5.89;68.44;99345.84;10126234;29;20339;-82
2022/11/24 00:32:46;;;;;;;16.27;2.90;;;;;;;6.10;68.08;99344.03;10125545;29;20245;-82
2022/11/24 00:38:08;;;;;;;11.77;3.10;;;;;;;6.01;67.15;99351.59;10119102;29;20291;-83
2022/11/24 00:43:30;;;;;;;16.27;3.33;;;;;;;5.77;67.77;99365.22;10138615;29;20284;-81
2022/11/24 00:48:52;;;;;;;7.43;2.33;;;;;;;6.13;66.29;99362.94;10138950;29;20312;-81
2022/11/24 00:54:14;;;;;;;15.53;2.73;;;;;;;6.03;66.57;99366.06;10126021;29;20205;-83
2022/11/24 00:59:36;;;;;;;9.97;2.60;;;;;;;6.20;65.73;99363.25;10138731;29;20328;-80
2022/11/24 01:04:58;;;;;;;12.13;2.77;;;;;;;5.81;66.69;99372.63;10122073;29;20296;-80
2022/11/24 01:10:21;;;;;;;9.10;2.20;;;;;;;6.45;64.52;99372.81;10138485;29;20530;-81
2022/11/24 01:15:43;;;;;;;11.10;3.23;;;;;;;5.97;65.26;99372.97;10122009;29;20578;-81
2022/11/24 01:21:05;;;;;;;9.97;2.67;;;;;;;5.82;66.22;99384.63;10121494;29;20234;-81
2022/11/24 01:26:27;;;;;;;15.27;3.57;;;;;;;5.49;67.13;99376.69;10138748;29;20204;-80
2022/11/24 01:31:49;;;;;;;11.13;2.50;;;;;;;5.78;67.07;99389.22;10121327;29;20233;-82
2022/11/24 01:37:11;;;;;;;10.13;3.23;;;;;;;5.83;65.92;99387.13;10121753;29;20633;-81
2022/11/24 01:42:45;;;;;;;16.83;3.07;;;;;;;5.64;66.79;99394.97;10121686;29;20472;-82
2022/11/24 01:48:14;;;;;;;8.43;2.00;;;;;;;5.91;65.97;99396.66;10111771;29;20296;-83
2022/11/24 01:53:38;;;;;;;14.60;2.43;;;;;;;5.59;66.04;99397.94;10127652;29;20272;-82
2022/11/24 01:59:02;;;;;;;14.43;2.53;;;;;;;6.23;64.06;99396.19;10132379;29;20401;-81
2022/11/24 02:04:27;;;;;;;10.33;2.47;;;;;;;5.64;66.20;99410.91;10132346;29;20603;-83
2022/11/24 02:09:58;;;;;;;13.80;2.47;;;;;;;5.17;67.81;99403.03;10118908;29;20542;-83
2022/11/24 02:15:21;;;;;;;10.80;2.43;;;;;;;5.64;66.27;99417.31;10118703;29;20261;-83
2022/11/24 02:20:43;;;;;;;12.93;2.97;;;;;;;5.26;67.27;99417.03;10118733;29;20544;-83
2022/11/24 02:26:30;;;;;;;11.70;2.17;;;;;;;5.71;65.99;99416.84;10131246;29;20599;-83
2022/11/24 02:31:58;;;;;;;11.47;2.63;;;;;;;5.86;66.45;99422.00;10144772;29;20225;-82
2022/11/24 02:37:20;;;;;;;13.10;2.73;;;;;;;5.41;66.72;99416.59;10131110;29;20233;-83
2022/11/24 02:42:45;;;;;;;11.40;2.50;;;;;;;5.90;65.27;99414.56;10127062;29;20235;-82
2022/11/24 02:48:07;;;;;;;13.70;2.50;;;;;;;5.56;66.33;99427.34;10126155;29;20316;-82
2022/11/24 02:53:29;;;;;;;11.30;2.07;;;;;;;5.53;66.74;99439.16;10115670;29;20280;-84
2022/11/24 02:58:52;;;;;;;10.53;1.50;;;;;;;5.37;66.78;99440.75;10127671;29;20221;-80
2022/11/24 03:04:14;;;;;;;12.87;2.67;;;;;;;5.75;66.61;99434.63;10101696;29;20253;-82
2022/11/24 03:09:36;;;;;;;10.53;2.93;;;;;;;5.28;66.52;99431.50;10095988;29;20264;-82
2022/11/24 03:14:58;;;;;;;13.13;3.57;;;;;;;5.77;65.74;99437.91;10129172;29;20499;-82
2022/11/24 03:20:20;;;;;;;9.10;2.23;;;;;;;5.31;67.98;99446.81;10104972;29;20206;-81
2022/11/24 03:25:42;;;;;;;9.93;2.63;;;;;;;5.59;66.18;99453.81;10099822;29;20197;-83
2022/11/24 03:31:05;;;;;;;12.03;3.13;;;;;;;5.68;65.63;99462.22;10110304;29;20229;-80
2022/11/24 03:36:27;;;;;;;8.67;2.00;;;;;;;6.04;64.66;99453.59;10119098;29;20573;-82
2022/11/24 03:41:52;;;;;;;11.33;2.73;;;;;;;5.87;65.50;99454.41;10105223;29;20227;-83
2022/11/24 03:47:15;;;;;;;12.83;2.90;;;;;;;6.10;64.75;99458.72;10083442;29;1089371;-82
2022/11/24 03:52:37;;;;;;;9.27;2.63;;;;;;;5.94;64.39;99465.91;10106725;29;20531;-83
2022/11/24 03:57:59;;;;;;;11.13;2.27;;;;;;;5.59;66.18;99463.03;10123907;29;20631;-82
2022/11/24 04:03:21;;;;;;;10.13;2.23;;;;;;;6.03;64.93;99466.75;10133597;29;20304;-80
2022/11/24 04:08:43;;;;;;;12.83;4.03;;;;;;;5.65;66.72;99482.44;10128278;29;20280;-80
2022/11/24 04:14:05;;;;;;;11.63;2.37;;;;;;;5.90;65.36;99481.69;10117946;29;20208;-80
2022/11/24 04:19:27;;;;;;;11.20;2.73;;;;;;;5.78;66.42;99495.47;10118948;29;20279;-82
2022/11/24 04:24:49;;;;;;;15.47;2.10;;;;;;;5.88;65.21;99492.41;10124903;29;20277;-83
2022/11/24 04:30:11;;;;;;;14.13;3.00;;;;;;;5.99;64.81;99490.94;10119089;29;20316;-82
2022/11/24 04:35:34;;;;;;;7.80;1.73;;;;;;;5.78;65.36;99501.06;10112431;29;20221;-82
2022/11/24 04:41:03;;;;;;;11.63;2.63;;;;;;;5.87;65.42;99501.94;10113634;29;20252;-80
2022/11/24 04:46:25;;;;;;;11.20;2.13;;;;;;;6.19;66.00;99517.47;10116647;29;20232;-80
2022/11/24 04:51:47;;;;;;;10.53;2.90;;;;;;;6.13;67.12;99519.63;10131623;29;20256;-81
2022/11/24 04:57:23;;;;;;;11.57;2.13;;;;;;;6.11;67.84;99526.69;10132064;29;20593;-80
2022/11/24 05:02:46;;;;;;;13.93;2.23;;;;;;;5.91;68.67;99539.28;10114615;29;20197;-80
2022/11/24 05:08:08;;;;;;;11.53;2.33;;;;;;;5.85;68.57;99538.63;10130877;29;20965;-81
2022/11/24 05:13:30;;;;;;;13.63;2.77;;;;;;;5.82;69.79;99549.63;10111314;29;20598;-80
2022/11/24 05:18:52;;;;;;;12.77;2.50;;;;;;;5.73;70.15;99557.16;10120333;29;20261;-80
2022/11/24 05:24:14;;;;;;;11.50;2.33;;;;;;;5.65;69.06;99560.72;10113211;29;20273;-80
2022/11/24 05:29:37;;;;;;;20.20;2.63;;;;;;;5.80;69.05;99566.72;10122023;29;20652;-83
2022/11/24 05:35:01;;;;;;;14.33;3.07;;;;;;;6.07;68.28;99582.44;10116038;29;20292;-82
2022/11/24 05:40:23;;;;;;;13.67;2.27;;;;;;;5.94;68.56;99581.41;10125653;29;20220;-82
2022/11/24 05:45:45;;;;;;;13.70;2.10;;;;;;;5.96;67.96;99589.50;10099311;29;20301;-82
2022/11/24 05:51:07;;;;;;;13.17;3.40;;;;;;;6.59;66.15;99588.22;10127827;29;20292;-82
2022/11/24 05:56:29;;;;;;;12.17;2.97;;;;;;;6.44;66.61;99594.28;10133217;29;20205;-82
2022/11/24 06:01:51;;;;;;;18.20;2.77;;;;;;;6.03;68.15;99606.63;10128822;29;20253;-83
2022/11/24 06:07:13;;;;;;;11.70;2.50;;;;;;;5.98;67.26;99603.97;10101325;29;20276;-83
2022/11/24 06:12:35;;;;;;;16.60;2.97;;;;;;;6.34;67.06;99605.75;10112586;29;20221;-82
2022/11/24 06:17:57;;;;;;;19.17;3.23;;;;;;;6.29;66.29;99606.72;10108562;29;20267;-81
2022/11/24 06:23:19;;;;;;;17.37;3.33;;;;;;;6.22;66.50;99615.59;10109985;29;20209;-79
2022/11/24 06:28:42;;;;;;;13.13;2.70;;;;;;;6.29;66.39;99607.53;10117403;29;20205;-79
2022/11/24 06:34:10;;;;;;;15.10;2.27;;;;;;;6.42;66.08;99627.34;10138951;29;20276;-80
2022/11/24 06:39:32;;;;;;;11.67;2.57;;;;;;;6.12;66.53;99627.09;10110352;29;20200;-80
2022/11/24 06:44:54;;;;;;;14.90;3.40;;;;;;;6.38;65.87;99631.94;10112751;29;20236;-80
2022/11/24 06:50:17;;;;;;;9.33;2.43;;;;;;;6.16;66.10;99642.06;10131635;29;20332;-80
2022/11/24 06:55:39;;;;;;;15.37;3.07;;;;;;;6.56;64.58;99650.44;10131561;29;20263;-83
2022/11/24 07:01:01;;;;;;;16.67;2.60;;;;;;;6.34;65.37;99658.91;10108910;29;20229;-81
2022/11/24 07:06:24;;;;;;;11.90;2.37;;;;;;;6.34;64.99;99661.72;10127320;29;20240;-81
2022/11/24 07:11:46;;;;;;;11.90;2.33;;;;;;;6.56;64.04;99667.25;10107733;29;20319;-82
2022/11/24 07:17:09;;;;;;;13.30;2.53;;;;;;;6.44;63.62;99676.28;10136822;29;20635;-80
2022/11/24 07:22:31;;;;;;;11.03;3.20;;;;;;;6.49;63.80;99690.13;10137120;29;20273;-82
2022/11/24 07:27:57;;;;;;;10.87;2.30;;;;;;;6.63;62.42;99698.41;10126892;29;20595;-80
2022/11/24 07:33:23;;;;;;;12.37;2.43;;;;;;;6.67;61.96;99705.00;10114577;29;20721;-81
2022/11/24 07:38:45;;;;;;;12.03;2.63;;;;;;;6.31;62.23;99716.38;10144825;29;20240;-80
2022/11/24 07:44:07;;;;;;;6.90;1.77;;;;;;;6.60;61.16;99724.25;10119147;29;20276;-80
2022/11/24 07:49:29;;;;;;;11.00;1.63;;;;;;;6.10;63.31;99727.28;10138434;29;20288;-80
2022/11/24 07:54:52;;;;;;;8.47;1.53;;;;;;;6.52;61.01;99734.28;10125105;29;20372;-81
2022/11/24 08:00:14;;;;;;;6.57;1.40;;;;;;;6.91;60.25;99747.44;10104976;29;20331;-82
2022/11/24 08:05:36;;;;;;;5.47;1.50;;;;;;;6.38;61.58;99757.91;10106889;29;20259;-82
2022/11/24 08:11:10;;;;;;;6.93;1.30;;;;;;;5.98;61.84;99774.59;10115037;29;20264;-80
2022/11/24 08:16:32;;;;;;;3.80;0.80;;;;;;;6.79;60.32;99778.06;10104689;29;20236;-82
2022/11/24 08:21:54;;;;;;;3.53;0.93;;;;;;;6.58;62.20;99793.75;10118599;29;20213;-82
2022/11/24 08:27:17;;;;;;;3.87;0.63;;;;;;;6.26;62.36;99803.28;10136883;29;20573;-82
2022/11/24 08:32:39;;;;;;;1.77;0.53;;;;;;;6.32;62.61;99801.97;10114732;29;20264;-82
2022/11/24 08:38:01;;;;;;;5.57;0.87;;;;;;;6.22;62.82;99813.44;10144445;29;20240;-82
2022/11/24 08:43:23;;;;;;;3.43;0.67;;;;;;;6.13;62.54;99815.38;10110920;29;20205;-82
2022/11/24 08:48:47;;;;;;;3.83;0.40;;;;;;;6.30;61.92;99824.69;10131699;29;20236;-82
2022/11/24 08:54:12;;;;;;;4.57;0.67;;;;;;;6.02;62.35;99831.56;10118019;29;20253;-82
2022/11/24 08:59:34;;;;;;;4.13;0.70;;;;;;;6.44;61.03;99837.81;10133992;29;20272;-82
2022/11/24 09:04:56;;;;;;;4.13;0.70;;;;;;;6.43;61.90;99847.34;10124517;29;20673;-81
2022/11/24 09:10:18;;;;;;;3.17;0.50;;;;;;;6.33;61.51;99851.22;10130722;29;20256;-82
2022/11/24 09:15:40;;;;;;;2.97;0.40;;;;;;;6.21;62.32;99871.38;10096450;29;20555;-82
2022/11/24 09:21:19;;;;;;;3.47;0.67;;;;;;;6.23;62.33;99871.06;10114649;29;20240;-82
2022/11/24 09:26:41;;;;;;;4.10;0.90;;;;;;;5.97;64.23;99884.03;10128656;29;20611;-81
2022/11/24 09:32:03;;;;;;;0.90;0.40;;;;;;;6.04;64.60;99885.22;10102268;29;20316;-81
2022/11/24 09:37:25;;;;;;;4.83;1.00;;;;;;;6.30;64.89;99900.25;10128431;29;20240;-83
2022/11/24 09:42:56;;;;;;;3.37;0.80;;;;;;;6.20;65.64;99906.09;10136133;29;20526;-84
2022/11/24 09:48:26;;;;;;;4.70;1.10;;;;;;;6.00;65.45;99917.78;10098888;29;20733;-83
2022/11/24 09:53:52;;;;;;;3.47;1.07;;;;;;;6.45;64.29;99924.28;10112634;29;20327;-83
2022/11/24 09:59:16;;;;;;;6.30;1.13;;;;;;;6.36;64.83;99920.56;10130852;29;20313;-83
2022/11/24 10:04:41;;;;;;;8.07;1.30;;;;;;;6.74;63.16;99920.19;10112573;29;20240;-82
2022/11/24 10:10:25;;;;;;;8.20;1.17;;;;;;;7.02;62.03;99936.50;10108163;29;20314;-84
2022/11/24 10:15:58;;;;;;;6.93;1.10;;;;;;;6.56;63.14;99947.25;10112563;29;20248;-81
2022/11/24 10:21:46;;;;;;;4.27;1.50;;;;;;;6.79;63.28;99937.69;10108241;29;20828;-82
2022/11/24 10:27:20;;;;;;;5.87;1.47;;;;;;;6.99;61.95;99955.94;10110888;29;20281;-81
2022/11/24 10:32:57;;;;;;;15.67;2.27;;;;;;;6.85;62.02;99950.41;10126861;29;20308;-81
2022/11/24 10:38:18;;;;;;;9.20;2.17;;;;;;;6.94;61.80;99962.50;10122178;29;20626;-81
2022/11/24 10:43:42;;;;;;;8.03;1.83;;;;;;;6.45;63.63;99971.88;10111542;29;20240;-83
2022/11/24 10:49:04;;;;;;;6.87;1.80;;;;;;;7.22;61.46;99970.72;10130537;29;20508;-82
2022/11/24 10:54:27;;;;;;;4.40;1.33;;;;;;;7.21;61.54;99989.50;10117561;29;20286;-82
2022/11/24 10:59:49;;;;;;;8.97;2.43;;;;;;;7.16;61.44;99988.84;10130273;29;20197;-82
2022/11/24 11:05:32;;;;;;;8.10;1.70;;;;;;;7.43;60.57;99988.66;10121977;29;20209;-82
2022/11/24 11:11:20;;;;;;;7.13;1.63;;;;;;;7.68;59.96;99985.16;10129013;29;20225;-84
2022/11/24 11:16:50;;;;;;;7.17;1.60;;;;;;;7.39;60.88;99984.84;10120684;29;20626;-83
2022/11/24 11:22:16;;;;;;;9.20;1.77;;;;;;;7.05;62.33;99999.50;10104031;29;20730;-83
2022/11/24 11:27:39;;;;;;;5.30;1.40;;;;;;;7.47;61.17;100000.84;10112205;29;20269;-82
2022/11/24 11:33:01;;;;;;;9.50;1.90;;;;;;;7.65;60.29;100011.03;10088252;29;20261;-83
2022/11/24 11:38:34;;;;;;;7.77;1.80;;;;;;;8.04;58.27;100014.97;10101260;29;20217;-83
2022/11/24 11:44:20;;;;;;;7.43;1.50;;;;;;;7.44;60.41;100018.34;10119592;29;20281;-81
2022/11/24 11:49:43;;;;;;;9.70;2.03;;;;;;;7.48;59.73;100026.94;10132030;29;20291;-80
2022/11/24 11:55:30;;;;;;;8.60;1.80;;;;;;;8.18;57.97;100020.44;10105009;29;20268;-80
2022/11/24 12:01:00;;;;;;;7.20;1.90;;;;;;;8.33;57.46;100028.41;10118967;29;20602;-81
2022/11/24 12:06:44;;;;;;;8.90;1.83;;;;;;;8.16;57.62;100040.41;10119467;29;20559;-81
2022/11/24 12:12:21;;;;;;;10.60;2.17;;;;;;;7.60;59.14;100044.84;10117598;29;20260;-81
2022/11/24 12:17:51;;;;;;;8.07;1.90;;;;;;;8.33;56.13;100034.84;10118029;29;20240;-84
2022/11/24 12:23:40;;;;;;;9.87;2.00;;;;;;;8.01;57.33;100038.88;10120067;29;20209;-83
2022/11/24 12:29:08;;;;;;;7.27;1.70;;;;;;;8.57;55.32;100016.69;10116049;29;20241;-81
2022/11/24 12:34:49;;;;;;;9.77;1.80;;;;;;;8.04;58.17;100031.81;10121795;29;20304;-83
2022/11/24 12:40:11;;;;;;;6.30;1.63;;;;;;;7.65;58.89;100038.25;10130402;29;20240;-80
2022/11/24 12:45:42;;;;;;;13.13;2.57;;;;;;;8.52;55.58;100030.88;10122043;29;20333;-81
2022/11/24 12:51:14;;;;;;;9.80;2.10;;;;;;;7.80;56.87;100031.41;10128539;29;20267;-79
2022/11/24 12:56:42;;;;;;;8.17;1.93;;;;;;;8.00;56.84;100039.22;10130221;29;20287;-81
2022/11/24 13:02:23;;;;;;;9.73;1.97;;;;;;;8.90;54.60;100031.09;10130548;29;20296;-80
2022/11/24 13:07:47;;;;;;;8.17;2.07;;;;;;;8.24;56.22;100036.78;10139633;29;20311;-80
2022/11/24 13:13:11;;;;;;;13.73;2.30;;;;;;;8.14;56.59;100036.28;10120429;29;20264;-80
2022/11/24 13:18:55;;;;;;;6.93;2.03;;;;;;;8.27;56.35;100036.16;10113726;29;20682;-82
2022/11/24 13:24:17;;;;;;;9.60;1.70;;;;;;;8.31;55.50;100031.53;10123302;29;20232;-80
2022/11/24 13:29:44;;;;;;;10.37;2.13;;;;;;;8.21;56.33;100043.09;10123502;29;20295;-80
2022/11/24 13:35:13;;;;;;;7.87;1.90;;;;;;;8.66;54.69;100031.59;10112244;29;20690;-81
2022/11/24 13:40:37;;;;;;;7.07;2.47;;;;;;;8.43;55.50;100042.97;10098452;29;20231;-80
2022/11/24 13:46:02;;;;;;;10.30;1.77;;;;;;;8.40;54.86;100040.78;10099628;29;20269;-80
2022/11/24 13:51:24;;;;;;;10.23;1.80;;;;;;;8.56;54.48;100038.34;10134573;29;20252;-81
2022/11/24 13:56:46;;;;;;;10.50;1.87;;;;;;;8.58;53.08;100041.66;10120391;29;20236;-80
2022/11/24 14:02:20;;;;;;;9.73;1.63;;;;;;;8.90;53.10;100047.94;10134553;29;20228;-81
2022/11/24 14:07:48;;;;;;;8.03;1.87;;;;;;;8.24;54.60;100048.03;10126425;29;20312;-82
2022/11/24 14:13:22;;;;;;;10.00;1.60;;;;;;;8.54;53.34;100051.88;10090359;29;20316;-81
2022/11/24 14:18:47;;;;;;;11.30;2.60;;;;;;;8.52;53.32;100054.19;10135097;29;20622;-81
2022/11/24 14:24:11;;;;;;;8.57;1.83;;;;;;;8.07;54.57;100064.84;10125715;29;20236;-81
2022/11/24 14:29:33;;;;;;;10.30;2.00;;;;;;;8.13;55.10;100066.34;10141580;29;20603;-81
2022/11/24 14:34:56;;;;;;;11.03;2.33;;;;;;;8.52;53.49;100058.97;10130895;29;20289;-82
2022/11/24 14:40:36;;;;;;;12.57;2.17;;;;;;;8.24;54.52;100064.03;10103184;29;20233;-81
2022/11/24 14:46:04;;;;;;;11.07;2.77;;;;;;;8.62;53.04;100064.28;10138086;29;20256;-82
2022/11/24 14:51:29;;;;;;;9.83;2.33;;;;;;;8.56;53.43;100065.59;10117816;29;20320;-82
2022/11/24 14:56:57;;;;;;;12.70;2.20;;;;;;;8.01;55.03;100074.56;10086896;29;20209;-82
2022/11/24 15:02:43;;;;;;;10.60;2.53;;;;;;;7.37;57.40;100082.44;10111828;29;20643;-81
2022/11/24 15:08:11;;;;;;;11.70;2.80;;;;;;;8.23;54.97;100071.63;10144495;29;20240;-81
2022/11/24 15:13:36;;;;;;;13.17;2.40;;;;;;;7.85;55.86;100078.94;10124738;29;20351;-81
2022/11/24 15:19:02;;;;;;;12.83;2.23;;;;;;;7.71;56.33;100077.06;10105355;29;20245;-81
2022/11/24 15:24:24;;;;;;;12.33;2.57;;;;;;;7.49;57.56;100088.28;10114032;29;20229;-80
2022/11/24 15:29:47;;;;;;;13.33;2.53;;;;;;;7.30;57.61;100084.91;10118698;29;20232;-81
2022/11/24 15:35:10;;;;;;;10.00;2.50;;;;;;;7.59;57.04;100085.25;10113618;29;20316;-82
2022/11/24 15:40:32;;;;;;;24.30;9.03;;;;;;;7.42;57.82;100087.94;10119324;29;20329;-81
2022/11/24 15:45:55;;;;;;;20.57;8.53;;;;;;;7.76;56.62;100092.09;10128076;29;20335;-82
2022/11/24 15:51:17;;;;;;;29.67;9.33;;;;;;;7.60;56.86;100089.72;10101120;29;20253;-81
2022/11/24 15:56:40;;;;;;;35.03;13.47;;;;;;;7.21;58.41;100112.00;10111785;29;20561;-80
2022/11/24 16:02:03;;;;;;;14.23;5.67;;;;;;;7.44;57.48;100102.47;10125614;29;20229;-82
2022/11/24 16:07:26;;;;;;;20.53;6.70;;;;;;;7.05;58.78;100116.38;10119940;29;20540;-83
2022/11/24 16:12:48;;;;;;;17.70;6.10;;;;;;;6.82;59.08;100116.31;10114927;29;20634;-81
2022/11/24 16:18:12;;;;;;;12.53;4.63;;;;;;;6.66;59.80;100112.22;10089530;29;20237;-82
2022/11/24 16:23:35;;;;;;;11.43;3.33;;;;;;;6.63;60.55;100116.50;10094188;29;20229;-82
2022/11/24 16:28:57;;;;;;;17.20;4.20;;;;;;;6.68;60.50;100123.94;10099122;29;20229;-84
2022/11/24 16:34:19;;;;;;;12.20;2.73;;;;;;;6.47;60.49;100122.72;10096525;29;20278;-81
2022/11/24 16:39:41;;;;;;;9.33;2.90;;;;;;;6.50;60.42;100124.91;10090488;29;20272;-81
2022/11/24 16:45:04;;;;;;;10.53;3.10;;;;;;;6.55;61.07;100127.56;10093807;29;20726;-81
2022/11/24 16:50:26;;;;;;;10.07;2.77;;;;;;;6.48;60.52;100125.22;10108213;29;20722;-82
2022/11/24 16:55:56;;;;;;;11.87;2.70;;;;;;;6.56;60.34;100126.44;10113781;29;20303;-82
2022/11/24 17:01:18;;;;;;;11.03;3.07;;;;;;;6.49;60.60;100126.88;10112305;29;20233;-84
2022/11/24 17:06:41;;;;;;;17.90;4.67;;;;;;;6.79;59.46;100114.16;10101885;29;20556;-83
2022/11/24 17:12:03;;;;;;;12.50;3.20;;;;;;;6.67;59.35;100119.47;10105003;29;20470;-83
2022/11/24 17:17:25;;;;;;;10.50;3.57;;;;;;;6.56;59.40;100123.63;10099079;29;20317;-83
2022/11/24 17:22:47;;;;;;;20.37;4.63;;;;;;;6.47;59.45;100128.31;10116215;29;20229;-82
2022/11/24 17:28:10;;;;;;;16.63;4.60;;;;;;;5.98;60.32;100126.25;10083602;29;20241;-82
2022/11/24 17:33:32;;;;;;;10.67;3.00;;;;;;;6.24;59.42;100128.22;10087627;29;20284;-83
2022/11/24 17:38:54;;;;;;;11.53;3.50;;;;;;;6.43;58.96;100127.28;10115140;29;20240;-82
2022/11/24 17:44:16;;;;;;;10.13;3.90;;;;;;;6.55;59.00;100131.22;10100868;29;20710;-81
2022/11/24 17:49:38;;;;;;;13.37;4.07;;;;;;;6.58;58.39;100130.59;10091384;29;20248;-82
2022/11/24 17:55:01;;;;;;;11.40;2.60;;;;;;;6.47;58.64;100140.34;10092953;29;20274;-81
2022/11/24 18:00:23;;;;;;;7.97;2.90;;;;;;;6.50;58.50;100138.91;10094915;29;20240;-82
2022/11/24 18:05:45;;;;;;;8.37;1.90;;;;;;;6.10;59.34;100146.16;10079667;29;20233;-84
2022/11/24 18:11:11;;;;;;;7.57;1.63;;;;;;;6.25;58.96;100151.44;10113953;29;20394;-80
2022/11/24 18:16:33;;;;;;;8.10;1.60;;;;;;;6.32;58.59;100154.63;10088281;29;20308;-79
2022/11/24 18:21:55;;;;;;;7.13;2.07;;;;;;;6.09;59.32;100139.72;10105370;29;20607;-82
2022/11/24 18:27:17;;;;;;;8.27;1.90;;;;;;;6.17;58.70;100141.78;10086970;29;20226;-82
2022/11/24 18:32:39;;;;;;;9.43;2.90;;;;;;;6.14;58.65;100145.22;10129507;29;20252;-82
2022/11/24 18:38:02;;;;;;;6.83;1.70;;;;;;;5.92;59.19;100161.88;10109544;29;20241;-82
2022/11/24 18:43:26;;;;;;;11.37;2.30;;;;;;;5.73;60.22;100163.91;10105985;29;20228;-81
2022/11/24 18:48:50;;;;;;;14.07;2.30;;;;;;;5.73;59.82;100169.50;10108007;29;20268;-81
2022/11/24 18:54:12;;;;;;;7.83;2.43;;;;;;;6.03;59.17;100174.53;10122789;29;20256;-83
2022/11/24 18:59:35;;;;;;;9.03;2.17;;;;;;;5.90;59.19;100175.31;10137815;29;20201;-80
2022/11/24 19:04:57;;;;;;;10.63;2.57;;;;;;;5.54;60.11;100189.94;10132783;29;20273;-80
2022/11/24 19:10:19;;;;;;;7.63;2.70;;;;;;;5.86;59.00;100175.13;10132914;29;20232;-81
2022/11/24 19:15:41;;;;;;;7.80;2.10;;;;;;;5.56;59.43;100175.69;10133112;29;20283;-81
2022/11/24 19:21:04;;;;;;;10.17;2.10;;;;;;;5.69;59.19;100183.28;10118005;29;20300;-81
2022/11/24 19:26:26;;;;;;;6.23;1.53;;;;;;;5.55;59.11;100179.59;10111635;29;20293;-79
2022/11/24 19:31:48;;;;;;;8.87;2.67;;;;;;;5.45;58.75;100171.41;10111343;29;20308;-83
2022/11/24 19:37:10;;;;;;;5.93;1.57;;;;;;;5.48;59.29;100171.63;10098768;29;20598;-79
2022/11/24 19:42:33;;;;;;;8.33;1.93;;;;;;;5.81;57.94;100166.00;10098274;29;20230;-79
2022/11/24 19:47:55;;;;;;;10.70;2.10;;;;;;;5.50;59.16;100166.53;10094928;29;20272;-79
2022/11/24 19:53:17;;;;;;;9.93;1.70;;;;;;;5.68;58.64;100161.22;10087863;29;20321;-81
2022/11/24 19:58:39;;;;;;;10.57;2.40;;;;;;;5.41;59.47;100168.38;10107680;29;20232;-80
2022/11/24 20:04:04;;;;;;;10.73;1.97;;;;;;;5.63;58.80;100164.13;10097151;29;20238;-78
2022/11/24 20:09:27;;;;;;;8.07;2.20;;;;;;;5.17;59.76;100162.06;10112501;29;20232;-80
2022/11/24 20:14:49;;;;;;;6.47;2.10;;;;;;;5.47;59.58;100157.94;10103068;29;20258;-82
2022/11/24 20:20:11;;;;;;;7.60;1.87;;;;;;;5.58;58.81;100173.41;10103314;29;20244;-81
2022/11/24 20:25:38;;;;;;;10.07;2.53;;;;;;;5.33;58.85;100166.28;10113000;29;20232;-80
2022/11/24 20:31:34;;;;;;;5.17;1.80;;;;;;;5.64;58.38;100174.97;10102636;29;20217;-83
2022/11/24 20:36:56;;;;;;;10.97;2.57;;;;;;;5.37;59.59;100163.72;10113143;29;20233;-80
2022/11/24 20:42:18;;;;;;;7.30;1.90;;;;;;;5.46;59.18;100165.50;10107598;29;20233;-81
2022/11/24 20:47:40;;;;;;;9.27;2.30;;;;;;;5.55;58.20;100158.06;10117259;29;20316;-80
2022/11/24 20:53:03;;;;;;;7.17;2.50;;;;;;;5.64;58.19;100157.34;10106207;29;20256;-83
2022/11/24 20:58:25;;;;;;;8.47;2.63;;;;;;;5.32;58.78;100156.25;10130164;29;20280;-82
2022/11/24 21:03:54;;;;;;;7.93;2.00;;;;;;;5.12;59.47;100159.31;10122351;29;20695;-84
2022/11/24 21:09:17;;;;;;;4.93;1.90;;;;;;;5.63;57.89;100148.16;10128446;29;20210;-83
2022/11/24 21:14:39;;;;;;;8.97;2.30;;;;;;;5.31;59.78;100157.38;10105815;29;20259;-84
2022/11/24 21:20:02;;;;;;;9.23;2.37;;;;;;;5.19;59.72;100151.44;10143068;29;20197;-82
2022/11/24 21:25:24;;;;;;;7.77;2.13;;;;;;;5.32;59.45;100159.03;10136954;29;20205;-83
2022/11/24 21:30:46;;;;;;;9.47;1.77;;;;;;;5.21;59.90;100158.38;10139275;29;20206;-82
2022/11/24 21:36:08;;;;;;;9.37;2.30;;;;;;;4.98;60.47;100159.28;10135155;29;20272;-83
2022/11/24 21:41:31;;;;;;;6.90;1.90;;;;;;;4.96;61.08;100155.13;10111874;29;20284;-81
2022/11/24 21:46:53;;;;;;;5.53;1.90;;;;;;;5.21;60.22;100157.53;10111680;29;20220;-82
2022/11/24 21:52:16;;;;;;;8.53;1.90;;;;;;;5.16;60.79;100150.06;10128417;29;20238;-81
2022/11/24 21:57:38;;;;;;;8.00;1.57;;;;;;;5.02;61.01;100153.88;10142035;29;20201;-82
2022/11/24 22:03:00;;;;;;;6.50;1.37;;;;;;;5.41;60.15;100134.84;10137362;29;20257;-82
2022/11/24 22:08:24;;;;;;;5.90;1.60;;;;;;;5.19;60.55;100131.88;10116625;29;20213;-83
2022/11/24 22:13:46;;;;;;;5.07;1.50;;;;;;;5.12;60.30;100136.97;10132598;29;20503;-82
2022/11/24 22:19:08;;;;;;;9.07;2.03;;;;;;;4.93;61.43;100127.78;10129200;29;20256;-81
2022/11/24 22:24:31;;;;;;;5.93;1.63;;;;;;;5.14;60.44;100127.19;10130238;29;20193;-82
2022/11/24 22:29:53;;;;;;;9.13;1.50;;;;;;;5.00;61.56;100128.22;10130764;29;20257;-81
2022/11/24 22:35:15;;;;;;;6.10;2.10;;;;;;;5.09;61.51;100120.84;10125665;29;20225;-81
2022/11/24 22:40:37;;;;;;;10.07;2.47;;;;;;;5.04;61.76;100123.69;10129792;29;20197;-81
2022/11/24 22:46:05;;;;;;;8.70;1.50;;;;;;;5.06;62.03;100116.69;10142828;29;20221;-81
2022/11/24 22:51:30;;;;;;;8.40;1.50;;;;;;;5.01;62.10;100113.13;10119720;29;20258;-83
2022/11/24 22:56:52;;;;;;;10.77;2.03;;;;;;;4.99;62.18;100110.63;10125082;29;20566;-82
2022/11/24 23:02:14;;;;;;;8.70;2.00;;;;;;;4.89;62.13;100110.78;10113342;29;20229;-82
2022/11/24 23:07:37;;;;;;;7.60;2.17;;;;;;;5.14;62.15;100109.56;10125204;29;20518;-83
2022/11/24 23:12:59;;;;;;;9.33;1.40;;;;;;;5.35;61.26;100108.13;10124121;29;20233;-82
2022/11/24 23:18:21;;;;;;;7.57;1.07;;;;;;;4.96;61.77;100121.59;10136115;29;20201;-82
2022/11/24 23:23:44;;;;;;;6.97;1.60;;;;;;;5.19;61.69;100115.09;10097516;29;20515;-81
2022/11/24 23:29:08;;;;;;;7.20;2.40;;;;;;;5.32;60.96;100111.53;10148458;29;20272;-83
2022/11/24 23:34:30;;;;;;;10.77;2.03;;;;;;;5.31;61.52;100101.47;10129070;29;20224;-82
2022/11/24 23:39:52;;;;;;;8.03;1.60;;;;;;;5.67;60.63;100104.44;10141771;29;20745;-83
2022/11/24 23:45:14;;;;;;;7.53;1.20;;;;;;;5.40;61.47;100096.84;10128471;29;20706;-82
2022/11/24 23:50:36;;;;;;;7.37;1.23;;;;;;;5.82;60.98;100092.16;10141252;29;20233;-83
2022/11/24 23:55:58;;;;;;;6.93;1.60;;;;;;;5.36;61.82;100087.44;10138264;29;20630;-83
